createdAt,value
2022-11-24T00:01:22.204Z,6.20
2022-11-24T00:03:55.019Z,7.97
2022-11-24T00:06:23.210Z,5.90
2022-11-24T00:08:51.670Z,5.53
2022-11-24T00:11:23.217Z,5.95
2022-11-24T00:13:51.649Z,7.55
2022-11-24T00:16:22.575Z,8.05
2022-11-24T00:18:53.114Z,5.90
2022-11-24T00:21:22.038Z,7.97
2022-11-24T00:23:50.849Z,6.45
2022-11-24T00:26:23.461Z,5.32
2022-11-24T00:28:54.776Z,6.72
2022-11-24T00:31:24.608Z,8.55
2022-11-24T00:33:54.454Z,7.15
2022-11-24T00:36:24.666Z,9.32
2022-11-24T00:38:55.433Z,9.20
2022-11-24T00:41:25.747Z,8.93
2022-11-24T00:43:54.259Z,9.30
2022-11-24T00:46:23.455Z,6.70
2022-11-24T00:48:52.227Z,9.25
2022-11-24T00:51:21.923Z,8.73
2022-11-24T00:53:50.098Z,9.55
2022-11-24T00:56:18.348Z,9.52
2022-11-24T00:58:47.836Z,13.07
2022-11-24T01:01:17.958Z,7.30
2022-11-24T01:03:46.909Z,8.93
2022-11-24T01:06:17.227Z,9.85
2022-11-24T01:08:46.448Z,9.60
2022-11-24T01:11:17.180Z,6.60
2022-11-24T01:13:48.662Z,6.65
2022-11-24T01:16:18.622Z,9.35
2022-11-24T01:18:46.982Z,7.55
2022-11-24T01:21:16.007Z,9.57
2022-11-24T01:23:44.544Z,10.70
2022-11-24T01:26:15.614Z,10.85
2022-11-24T01:28:46.976Z,7.68
2022-11-24T01:31:17.376Z,10.75
2022-11-24T01:33:45.522Z,7.45
2022-11-24T01:36:13.902Z,9.60
2022-11-24T01:38:42.105Z,9.10
2022-11-24T01:41:13.315Z,9.00
2022-11-24T01:43:41.970Z,7.55
2022-11-24T01:46:21.292Z,10.55
2022-11-24T01:48:53.849Z,10.18
2022-11-24T01:51:26.434Z,11.13
2022-11-24T01:53:59.863Z,11.68
2022-11-24T01:56:28.838Z,10.55
2022-11-24T01:59:00.232Z,13.35
2022-11-24T02:01:31.549Z,11.55
2022-11-24T02:04:00.904Z,12.95
2022-11-24T02:06:31.570Z,13.52
2022-11-24T02:09:03.672Z,14.30
2022-11-24T02:11:36.213Z,13.25
2022-11-24T02:14:06.221Z,12.43
2022-11-24T02:16:36.902Z,15.50
2022-11-24T02:19:13.031Z,15.43
2022-11-24T02:21:41.306Z,18.52
2022-11-24T02:24:19.475Z,27.00
2022-11-24T02:26:52.011Z,22.95
2022-11-24T02:29:20.970Z,20.42
2022-11-24T02:31:52.731Z,22.52
2022-11-24T02:34:21.060Z,21.00
2022-11-24T02:36:49.187Z,19.08
2022-11-24T02:39:18.019Z,19.58
2022-11-24T02:41:51.296Z,22.50
2022-11-24T02:44:21.394Z,20.10
2022-11-24T02:46:49.615Z,15.75
2022-11-24T02:49:17.713Z,19.38
2022-11-24T02:51:46.061Z,16.80
2022-11-24T02:54:14.160Z,17.17
2022-11-24T02:56:42.239Z,17.83
2022-11-24T02:59:11.734Z,16.98
2022-11-24T03:01:40.018Z,17.17
2022-11-24T03:04:08.160Z,20.48
2022-11-24T03:06:36.234Z,24.05
2022-11-24T03:09:04.452Z,16.67
2022-11-24T03:11:32.592Z,17.92
2022-11-24T03:14:00.703Z,17.63
2022-11-24T03:16:30.317Z,22.75
2022-11-24T03:18:58.475Z,21.65
2022-11-24T03:21:26.593Z,19.10
2022-11-24T03:23:55.155Z,21.05
2022-11-24T03:26:25.038Z,18.05
2022-11-24T03:28:55.660Z,17.48
2022-11-24T03:31:24.561Z,21.90
2022-11-24T03:33:54.166Z,21.10
2022-11-24T03:36:22.348Z,16.02
2022-11-24T03:38:50.468Z,18.58
2022-11-24T03:41:18.827Z,16.67
2022-11-24T03:43:46.963Z,14.93
2022-11-24T03:46:15.088Z,14.75
2022-11-24T03:48:43.282Z,16.88
2022-11-24T03:51:13.019Z,21.35
2022-11-24T03:53:41.270Z,19.48
2022-11-24T03:56:09.447Z,21.65
2022-11-24T03:58:37.698Z,19.08
2022-11-24T04:01:05.803Z,21.05
2022-11-24T04:03:33.913Z,21.63
2022-11-24T04:06:02.031Z,23.80
2022-11-24T04:08:31.556Z,20.52
2022-11-24T04:10:59.716Z,19.08
2022-11-24T04:13:28.089Z,18.58
2022-11-24T04:15:56.344Z,24.77
2022-11-24T04:18:24.522Z,17.48
2022-11-24T04:20:53.107Z,24.08
2022-11-24T04:23:21.200Z,17.27
2022-11-24T04:25:50.644Z,22.27
2022-11-24T04:28:18.724Z,25.27
2022-11-24T04:30:46.977Z,17.95
2022-11-24T04:33:15.467Z,18.45
2022-11-24T04:35:43.623Z,19.27
2022-11-24T04:38:11.754Z,21.80
2022-11-24T04:40:40.019Z,19.05
2022-11-24T04:43:10.463Z,18.73
2022-11-24T04:45:38.562Z,17.15
2022-11-24T04:48:07.208Z,15.80
2022-11-24T04:50:35.322Z,20.02
2022-11-24T04:53:03.435Z,17.45
2022-11-24T04:55:31.521Z,19.20
2022-11-24T04:57:59.610Z,18.25
2022-11-24T05:00:29.116Z,18.13
2022-11-24T05:02:57.430Z,18.77
2022-11-24T05:05:25.542Z,18.25
2022-11-24T05:07:53.681Z,21.95
2022-11-24T05:10:36.754Z,19.05
2022-11-24T05:13:07.528Z,20.33
2022-11-24T05:15:38.278Z,17.52
2022-11-24T05:18:07.623Z,22.48
2022-11-24T05:20:36.383Z,23.45
2022-11-24T05:23:05.213Z,20.13
2022-11-24T05:25:33.547Z,17.58
2022-11-24T05:28:02.473Z,17.42
2022-11-24T05:30:31.221Z,19.23
2022-11-24T05:33:05.650Z,22.60
2022-11-24T05:35:34.113Z,28.23
2022-11-24T05:38:02.281Z,21.50
2022-11-24T05:40:30.578Z,21.70
2022-11-24T05:42:58.799Z,22.63
2022-11-24T05:45:26.958Z,28.35
2022-11-24T05:47:55.148Z,35.25
2022-11-24T05:50:24.695Z,26.70
2022-11-24T05:52:52.866Z,26.60
2022-11-24T05:55:21.161Z,26.13
2022-11-24T05:57:49.333Z,23.92
2022-11-24T06:00:20.163Z,32.60
2022-11-24T06:02:49.059Z,28.92
2022-11-24T06:05:17.637Z,28.35
2022-11-24T06:07:47.219Z,31.30
2022-11-24T06:10:16.239Z,31.65
2022-11-24T06:12:44.511Z,37.25
2022-11-24T06:15:13.405Z,34.40
2022-11-24T06:17:42.516Z,37.63
2022-11-24T06:20:12.312Z,28.30
2022-11-24T06:22:40.681Z,28.08
2022-11-24T06:25:10.831Z,29.05
2022-11-24T06:27:39.007Z,28.77
2022-11-24T06:30:07.967Z,29.80
2022-11-24T06:32:36.129Z,27.85
2022-11-24T06:35:04.936Z,31.98
2022-11-24T06:37:33.329Z,25.83
2022-11-24T06:40:01.544Z,31.02
2022-11-24T06:42:31.107Z,24.50
2022-11-24T06:45:00.276Z,25.85
2022-11-24T06:47:28.588Z,22.45
2022-11-24T06:49:56.750Z,23.45
2022-11-24T06:52:24.921Z,28.80
2022-11-24T06:54:53.716Z,25.45
2022-11-24T06:57:21.841Z,27.85
2022-11-24T06:59:51.579Z,28.83
2022-11-24T07:02:19.753Z,30.27
2022-11-24T07:04:47.911Z,25.98
2022-11-24T07:07:16.143Z,28.40
2022-11-24T07:09:44.463Z,26.65
2022-11-24T07:12:12.585Z,26.45
2022-11-24T07:14:40.756Z,17.52
2022-11-24T07:17:10.242Z,17.67
2022-11-24T07:19:38.421Z,15.20
2022-11-24T07:22:06.576Z,16.55
2022-11-24T07:24:34.981Z,12.80
2022-11-24T07:27:03.195Z,14.60
2022-11-24T07:29:31.658Z,14.10
2022-11-24T07:32:05.199Z,14.27
2022-11-24T07:34:35.229Z,13.32
2022-11-24T07:37:03.471Z,13.35
2022-11-24T07:39:31.694Z,14.68
2022-11-24T07:42:00.388Z,17.55
2022-11-24T07:44:28.713Z,15.80
2022-11-24T07:46:56.835Z,14.35
2022-11-24T07:49:24.984Z,16.35
2022-11-24T07:51:54.494Z,15.90
2022-11-24T07:54:22.580Z,20.70
2022-11-24T07:56:50.825Z,14.30
2022-11-24T07:59:19.139Z,14.98
2022-11-24T08:01:47.423Z,15.05
2022-11-24T08:04:15.609Z,14.30
2022-11-24T08:06:47.311Z,13.70
2022-11-24T08:09:17.219Z,12.38
2022-11-24T08:11:45.337Z,15.68
2022-11-24T08:14:13.494Z,13.00
2022-11-24T08:16:41.811Z,13.43
2022-11-24T08:19:11.849Z,12.52
2022-11-24T08:21:39.988Z,12.02
2022-11-24T08:24:09.564Z,11.57
2022-11-24T08:26:39.238Z,11.20
2022-11-24T08:29:07.311Z,11.93
2022-11-24T08:31:36.126Z,11.52
2022-11-24T08:34:06.186Z,10.50
2022-11-24T08:36:34.763Z,9.95
2022-11-24T08:39:03.216Z,15.10
2022-11-24T08:41:33.205Z,9.80
2022-11-24T08:44:02.701Z,9.40
2022-11-24T08:46:31.232Z,8.35
2022-11-24T08:48:59.519Z,7.30
2022-11-24T08:51:28.793Z,7.57
2022-11-24T08:53:58.505Z,5.97
2022-11-24T08:56:27.370Z,5.45
2022-11-24T08:58:55.797Z,4.35
2022-11-24T09:01:26.014Z,3.75
2022-11-24T09:03:54.742Z,3.20
2022-11-24T09:06:25.055Z,2.78
2022-11-24T09:08:54.383Z,3.95
2022-11-24T09:11:23.232Z,3.30
2022-11-24T09:13:51.857Z,3.70
2022-11-24T09:16:21.857Z,3.10
2022-11-24T09:18:56.245Z,2.53
2022-11-24T09:21:25.059Z,4.32
2022-11-24T09:23:54.722Z,2.60
2022-11-24T09:26:24.489Z,2.20
2022-11-24T09:28:55.138Z,2.80
2022-11-24T09:31:25.627Z,2.05
2022-11-24T09:33:55.965Z,2.95
2022-11-24T09:36:25.208Z,2.95
2022-11-24T09:38:53.643Z,2.22
2022-11-24T09:41:40.978Z,2.47
2022-11-24T09:44:19.945Z,1.88
2022-11-24T09:46:56.618Z,3.45
2022-11-24T09:49:33.643Z,3.00
2022-11-24T09:52:09.799Z,2.20
2022-11-24T09:54:47.329Z,3.05
2022-11-24T09:57:17.142Z,2.47
2022-11-24T09:59:45.359Z,2.13
2022-11-24T10:02:14.200Z,2.20
2022-11-24T10:04:46.366Z,3.33
2022-11-24T10:07:23.954Z,7.68
2022-11-24T10:10:03.446Z,5.43
2022-11-24T10:12:51.004Z,5.93
2022-11-24T10:15:34.807Z,5.57
2022-11-24T10:18:34.673Z,7.55
2022-11-24T10:21:16.181Z,4.50
2022-11-24T10:24:03.789Z,4.38
2022-11-24T10:26:36.962Z,4.63
2022-11-24T10:29:19.854Z,6.15
2022-11-24T10:31:51.195Z,4.68
2022-11-24T10:34:23.480Z,4.07
2022-11-24T10:37:01.487Z,3.78
2022-11-24T10:39:36.676Z,3.85
2022-11-24T10:42:13.031Z,4.72
2022-11-24T10:44:43.638Z,4.43
2022-11-24T10:47:22.917Z,3.90
2022-11-24T10:49:57.436Z,4.25
2022-11-24T10:52:29.759Z,4.90
2022-11-24T10:54:59.934Z,4.63
2022-11-24T10:57:29.976Z,3.97
2022-11-24T10:59:58.189Z,3.88
2022-11-24T11:02:35.882Z,5.65
2022-11-24T11:05:27.606Z,6.63
2022-11-24T11:08:20.413Z,4.80
2022-11-24T11:10:50.846Z,4.63
2022-11-24T11:13:28.709Z,5.68
2022-11-24T11:15:58.161Z,5.82
2022-11-24T11:18:31.564Z,5.43
2022-11-24T11:21:03.024Z,4.93
2022-11-24T11:23:35.886Z,6.70
2022-11-24T11:26:31.975Z,4.55
2022-11-24T11:34:49.171Z,6.93
2022-11-24T11:37:18.651Z,6.15
2022-11-24T11:39:50.094Z,6.07
2022-11-24T11:43:00.072Z,7.03
2022-11-24T11:45:16.479Z,5.55
2022-11-24T11:47:50.940Z,7.53
2022-11-24T11:50:25.613Z,7.60
2022-11-24T11:53:10.514Z,5.35
2022-11-24T11:55:50.102Z,5.68
2022-11-24T11:58:57.832Z,5.82
2022-11-24T12:01:45.193Z,5.82
2022-11-24T12:04:21.244Z,4.10
2022-11-24T12:07:12.554Z,8.43
2022-11-24T12:09:56.338Z,6.05
2022-11-24T12:12:48.064Z,5.57
2022-11-24T12:15:23.929Z,7.45
2022-11-24T12:17:56.632Z,7.15
2022-11-24T12:20:39.015Z,5.97
2022-11-24T12:23:19.593Z,4.72
2022-11-24T12:25:53.785Z,6.55
2022-11-24T12:28:33.773Z,6.32
2022-11-24T12:31:07.250Z,6.32
2022-11-24T12:34:07.774Z,5.30
2022-11-24T12:37:00.344Z,5.63
2022-11-24T12:39:35.470Z,4.25
2022-11-24T12:42:11.934Z,5.78
2022-11-24T12:45:07.265Z,5.28
2022-11-24T12:47:53.235Z,7.38
2022-11-24T12:50:25.115Z,6.43
2022-11-24T12:53:00.709Z,5.10
2022-11-24T12:55:32.235Z,4.35
2022-11-24T12:58:10.983Z,4.30
2022-11-24T13:00:55.538Z,5.75
2022-11-24T13:03:33.777Z,6.10
2022-11-24T13:06:08.559Z,6.43
2022-11-24T13:08:38.008Z,6.95
2022-11-24T13:11:42.844Z,7.15
2022-11-24T13:14:23.300Z,5.50
2022-11-24T13:19:43.994Z,4.88
2022-11-24T13:22:17.745Z,4.68
2022-11-24T13:24:46.131Z,4.82
2022-11-24T13:27:28.600Z,3.75
2022-11-24T13:29:56.834Z,7.15
2022-11-24T13:33:00.397Z,6.28
2022-11-24T13:35:29.169Z,5.10
2022-11-24T13:37:57.813Z,4.43
2022-11-24T13:40:54.264Z,4.38
2022-11-24T13:43:30.584Z,4.18
2022-11-24T13:45:58.773Z,4.28
2022-11-24T13:49:02.141Z,4.68
2022-11-24T13:51:30.311Z,5.45
2022-11-24T13:54:00.969Z,4.43
2022-11-24T13:56:31.786Z,5.30
2022-11-24T13:59:03.616Z,5.18
2022-11-24T14:01:33.359Z,4.63
2022-11-24T14:09:51.197Z,6.38
2022-11-24T14:12:23.412Z,5.10
2022-11-24T14:14:53.150Z,4.65
2022-11-24T14:17:23.543Z,4.55
2022-11-24T14:19:54.666Z,5.30
2022-11-24T14:22:26.842Z,4.22
2022-11-24T14:24:57.327Z,5.72
2022-11-24T14:27:30.607Z,6.88
2022-11-24T14:30:00.720Z,3.90
2022-11-24T14:32:29.751Z,4.22
2022-11-24T14:34:59.347Z,4.40
2022-11-24T14:37:27.675Z,4.00
2022-11-24T14:39:55.844Z,3.58
2022-11-24T14:42:27.238Z,5.40
2022-11-24T14:44:58.637Z,4.40
2022-11-24T14:47:31.765Z,11.77
2022-11-24T14:50:11.364Z,3.85
2022-11-24T14:52:46.439Z,7.20
2022-11-24T14:55:29.213Z,5.30
2022-11-24T14:57:57.879Z,4.22
2022-11-24T15:00:31.380Z,4.25
2022-11-24T15:03:17.040Z,5.40
2022-11-24T15:05:55.785Z,4.65
2022-11-24T15:08:25.908Z,5.30
2022-11-24T15:10:59.191Z,5.90
2022-11-24T15:13:27.629Z,5.68
2022-11-24T15:16:02.538Z,5.18
2022-11-24T15:18:39.235Z,5.65
2022-11-24T15:21:14.130Z,5.20
2022-11-24T15:24:05.992Z,5.00
2022-11-24T15:26:38.526Z,7.10
2022-11-24T15:29:10.385Z,5.60
2022-11-24T15:31:38.810Z,6.57
2022-11-24T15:34:07.638Z,6.38
2022-11-24T15:36:37.132Z,5.07
2022-11-24T15:39:05.404Z,6.10
2022-11-24T15:41:34.597Z,7.97
2022-11-24T15:44:02.716Z,5.50
2022-11-24T15:46:37.824Z,5.38
2022-11-24T15:49:07.605Z,5.10
2022-11-24T15:51:41.621Z,6.43
2022-11-24T15:54:14.675Z,6.07
2022-11-24T15:56:44.470Z,6.45
2022-11-24T15:59:20.185Z,4.75
2022-11-24T16:01:49.878Z,4.15
2022-11-24T16:04:18.534Z,4.95
2022-11-24T16:06:48.074Z,5.10
2022-11-24T16:09:17.467Z,6.07
2022-11-24T16:11:45.667Z,6.10
2022-11-24T16:14:13.997Z,6.60
2022-11-24T16:16:42.499Z,6.10
2022-11-24T16:19:11.129Z,5.75
2022-11-24T16:21:39.350Z,5.63
2022-11-24T16:24:09.522Z,5.43
2022-11-24T16:26:37.635Z,7.05
2022-11-24T16:29:05.853Z,5.32
2022-11-24T16:31:34.348Z,5.00
2022-11-24T16:34:02.498Z,6.50
2022-11-24T16:36:30.686Z,4.82
2022-11-24T16:39:00.844Z,7.10
2022-11-24T16:41:30.397Z,5.10
2022-11-24T16:43:58.604Z,6.22
2022-11-24T16:46:26.849Z,6.07
2022-11-24T16:49:00.216Z,5.97
2022-11-24T16:51:34.484Z,5.70
2022-11-24T16:54:03.832Z,5.00
2022-11-24T16:56:33.796Z,5.43
2022-11-24T16:59:02.141Z,7.40
2022-11-24T17:01:30.921Z,6.03
2022-11-24T17:03:59.179Z,5.03
2022-11-24T17:06:27.744Z,7.40
2022-11-24T17:08:56.835Z,6.00
2022-11-24T17:11:26.736Z,5.70
2022-11-24T17:13:57.790Z,5.50
2022-11-24T17:16:26.951Z,5.40
2022-11-24T17:18:55.456Z,6.88
2022-11-24T17:21:25.293Z,4.55
2022-11-24T17:23:55.562Z,4.70
2022-11-24T17:26:24.142Z,6.90
2022-11-24T17:28:52.505Z,8.90
2022-11-24T17:31:24.615Z,16.38
2022-11-24T17:33:54.574Z,4.72
2022-11-24T17:36:23.263Z,6.07
2022-11-24T17:38:51.540Z,9.30
2022-11-24T17:41:19.888Z,6.20
2022-11-24T17:43:50.406Z,6.85
2022-11-24T17:46:19.027Z,5.78
2022-11-24T17:48:48.943Z,6.05
2022-11-24T17:51:18.681Z,5.95
2022-11-24T17:53:49.337Z,5.20
2022-11-24T17:56:19.528Z,6.57
2022-11-24T17:58:47.662Z,6.28
2022-11-24T18:01:16.070Z,6.68
2022-11-24T18:03:46.698Z,7.50
2022-11-24T18:06:20.145Z,7.45
2022-11-24T18:08:48.442Z,7.85
2022-11-24T18:11:19.924Z,7.85
2022-11-24T18:13:58.537Z,9.55
2022-11-24T18:16:30.414Z,6.57
2022-11-24T18:19:09.857Z,11.32
2022-11-24T18:21:41.378Z,5.45
2022-11-24T18:24:10.299Z,7.95
2022-11-24T18:26:38.837Z,6.68
2022-11-24T18:29:08.006Z,6.00
2022-11-24T18:31:36.899Z,6.35
2022-11-24T18:34:06.440Z,7.03
2022-11-24T18:36:35.503Z,8.05
2022-11-24T18:39:06.318Z,9.15
2022-11-24T18:41:34.597Z,7.22
2022-11-24T18:44:07.650Z,11.07
2022-11-24T18:46:36.043Z,8.20
2022-11-24T18:49:04.729Z,7.18
2022-11-24T18:51:32.891Z,8.82
2022-11-24T18:54:03.023Z,6.95
2022-11-24T18:56:32.651Z,5.45
2022-11-24T18:59:00.833Z,8.00
2022-11-24T19:01:30.325Z,5.82
2022-11-24T19:04:00.592Z,5.40
2022-11-24T19:06:32.662Z,9.32
2022-11-24T19:09:02.430Z,5.40
2022-11-24T19:11:35.583Z,9.23
2022-11-24T19:14:05.135Z,9.00
2022-11-24T19:16:34.143Z,8.15
2022-11-24T19:19:03.054Z,10.50
2022-11-24T19:21:33.046Z,6.50
2022-11-24T19:24:05.433Z,5.65
2022-11-24T19:26:35.955Z,5.03
2022-11-24T19:29:04.532Z,5.07
2022-11-24T19:31:33.506Z,6.38
2022-11-24T19:34:03.066Z,8.70
2022-11-24T19:36:31.754Z,5.53
2022-11-24T19:39:00.342Z,6.28
2022-11-24T19:41:30.263Z,9.13
2022-11-24T19:44:00.099Z,5.95
2022-11-24T19:46:30.135Z,5.78
2022-11-24T19:49:01.743Z,7.32
2022-11-24T19:51:31.853Z,5.90
2022-11-24T19:54:00.690Z,6.25
2022-11-24T19:56:30.151Z,5.35
2022-11-24T19:58:59.670Z,5.68
2022-11-24T20:01:30.173Z,5.22
2022-11-24T20:04:00.112Z,4.95
2022-11-24T20:06:29.639Z,4.85
2022-11-24T20:08:59.258Z,5.57
2022-11-24T20:11:28.534Z,5.20
2022-11-24T20:13:57.859Z,4.55
2022-11-24T20:16:29.866Z,6.18
2022-11-24T20:19:00.659Z,6.80
2022-11-24T20:21:31.231Z,5.45
2022-11-24T20:24:01.231Z,5.13
2022-11-24T20:26:31.643Z,6.88
2022-11-24T20:29:00.594Z,5.63
2022-11-24T20:31:32.197Z,5.55
2022-11-24T20:34:00.998Z,5.35
2022-11-24T20:36:30.827Z,4.50
2022-11-24T20:39:01.068Z,6.10
2022-11-24T20:41:30.910Z,4.95
2022-11-24T20:44:00.650Z,13.77
2022-11-24T20:46:32.120Z,6.43
2022-11-24T20:49:01.009Z,6.68
2022-11-24T20:51:32.471Z,8.10
2022-11-24T20:54:03.192Z,6.63
2022-11-24T20:56:33.242Z,7.03
2022-11-24T20:59:01.790Z,4.30
2022-11-24T21:01:34.936Z,10.40
2022-11-24T21:04:03.754Z,9.07
2022-11-24T21:06:31.924Z,7.00
2022-11-24T21:09:03.724Z,5.00
2022-11-24T21:11:32.893Z,7.93
2022-11-24T21:14:02.584Z,7.05
2022-11-24T21:16:33.885Z,6.40
2022-11-24T21:19:04.076Z,6.72
2022-11-24T21:21:35.208Z,4.45
2022-11-24T21:24:04.254Z,5.80
2022-11-24T21:26:32.447Z,6.20
2022-11-24T21:29:00.618Z,5.28
2022-11-24T21:31:28.964Z,5.88
2022-11-24T21:33:58.836Z,5.50
2022-11-24T21:36:27.585Z,6.93
2022-11-24T21:38:57.394Z,6.90
2022-11-24T21:41:27.635Z,7.03
2022-11-24T21:43:56.574Z,5.00
2022-11-24T21:46:25.739Z,8.00
2022-11-24T21:48:53.846Z,6.13
2022-11-24T21:51:23.338Z,5.50
2022-11-24T21:53:51.474Z,9.77
2022-11-24T21:56:21.754Z,8.40
2022-11-24T21:58:51.756Z,6.88
2022-11-24T22:01:21.755Z,5.68
2022-11-24T22:03:50.243Z,5.80
2022-11-24T22:06:20.230Z,4.85
2022-11-24T22:08:50.677Z,7.38
2022-11-24T22:11:20.518Z,8.80
2022-11-24T22:13:49.563Z,4.45
2022-11-24T22:16:20.133Z,5.60
2022-11-24T22:18:48.490Z,4.68
2022-11-24T22:21:18.716Z,12.25
2022-11-24T22:23:46.972Z,5.53
2022-11-24T22:26:18.872Z,4.22
2022-11-24T22:28:47.579Z,5.63
2022-11-24T22:31:17.553Z,4.25
2022-11-24T22:33:46.130Z,4.80
2022-11-24T22:36:15.628Z,5.28
2022-11-24T22:38:44.377Z,4.38
2022-11-24T22:41:13.980Z,3.85
2022-11-24T22:43:44.535Z,4.50
2022-11-24T22:46:14.610Z,3.33
2022-11-24T22:48:43.378Z,3.60
2022-11-24T22:51:14.567Z,3.85
2022-11-24T22:53:43.033Z,3.35
2022-11-24T22:56:12.443Z,4.03
2022-11-24T22:58:40.766Z,3.45
2022-11-24T23:01:11.804Z,3.72
2022-11-24T23:03:40.825Z,3.30
2022-11-24T23:06:12.860Z,4.43
2022-11-24T23:08:41.985Z,5.15
2022-11-24T23:11:12.570Z,3.28
2022-11-24T23:13:41.099Z,3.72
2022-11-24T23:16:12.533Z,3.72
2022-11-24T23:18:40.898Z,3.60
2022-11-24T23:21:10.303Z,4.00
2022-11-24T23:23:38.727Z,3.70
2022-11-24T23:26:09.117Z,4.25
2022-11-24T23:28:37.310Z,4.30
2022-11-24T23:31:07.849Z,4.20
2022-11-24T23:33:38.020Z,3.33
2022-11-24T23:47:32.571Z,4.47
2022-11-24T23:50:00.741Z,5.28
2022-11-24T23:52:31.247Z,5.05
2022-11-24T23:54:59.360Z,3.92
2022-11-24T23:57:27.570Z,5.05
2022-11-24T23:59:55.852Z,5.43
